sensor_id;sensor_type;location;lat;lon;timestamp;pressure;altitude;pressure_sealevel;temperature;humidity
41334;BME280;27078;46.428;6.256;2023-04-19T00:01:46;96635.13;;;10.86;100.00
41334;BME280;27078;46.428;6.256;2023-04-19T00:04:11;96632.56;;;10.74;100.00
41334;BME280;27078;46.428;6.256;2023-04-19T00:06:39;96646.13;;;10.60;100.00
41334;BME280;27078;46.428;6.256;2023-04-19T00:09:05;96640.09;;;10.48;100.00
41334;BME280;27078;46.428;6.256;2023-04-19T00:11:31;96641.97;;;10.36;100.00
41334;BME280;27078;46.428;6.256;2023-04-19T00:13:56;96644.38;;;10.28;100.00
41334;BME280;27078;46.428;6.256;2023-04-19T00:16:21;96639.50;;;10.24;100.00
41334;BME280;27078;46.428;6.256;2023-04-19T00:18:47;96641.31;;;10.23;100.00
41334;BME280;27078;46.428;6.256;2023-04-19T00:21:12;96640.91;;;10.28;100.00
41334;BME280;27078;46.428;6.256;2023-04-19T00:23:38;96640.09;;;10.27;100.00
41334;BME280;27078;46.428;6.256;2023-04-19T00:26:03;96643.69;;;10.26;100.00
41334;BME280;27078;46.428;6.256;2023-04-19T00:28:29;96645.75;;;10.02;100.00
41334;BME280;27078;46.428;6.256;2023-04-19T00:30:55;96642.66;;;9.96;100.00
41334;BME280;27078;46.428;6.256;2023-04-19T00:33:20;96648.38;;;9.81;100.00
41334;BME280;27078;46.428;6.256;2023-04-19T00:35:46;96641.75;;;9.54;100.00
41334;BME280;27078;46.428;6.256;2023-04-19T00:38:11;96651.13;;;9.47;100.00
41334;BME280;27078;46.428;6.256;2023-04-19T00:40:37;96657.28;;;9.36;100.00
41334;BME280;27078;46.428;6.256;2023-04-19T00:43:02;96654.63;;;9.36;100.00
41334;BME280;27078;46.428;6.256;2023-04-19T00:45:28;96656.19;;;9.38;100.00
41334;BME280;27078;46.428;6.256;2023-04-19T00:47:54;96660.75;;;9.36;100.00
41334;BME280;27078;46.428;6.256;2023-04-19T00:50:20;96671.16;;;9.38;100.00
41334;BME280;27078;46.428;6.256;2023-04-19T00:52:47;96664.31;;;9.35;100.00
41334;BME280;27078;46.428;6.256;2023-04-19T00:55:12;96661.34;;;9.40;100.00
41334;BME280;27078;46.428;6.256;2023-04-19T00:57:38;96664.22;;;9.37;100.00
41334;BME280;27078;46.428;6.256;2023-04-19T01:00:05;96663.25;;;9.38;100.00
41334;BME280;27078;46.428;6.256;2023-04-19T01:02:32;96658.09;;;9.36;100.00
41334;BME280;27078;46.428;6.256;2023-04-19T01:04:57;96655.72;;;9.22;100.00
41334;BME280;27078;46.428;6.256;2023-04-19T01:07:23;96654.22;;;9.08;100.00
41334;BME280;27078;46.428;6.256;2023-04-19T01:09:48;96659.72;;;9.16;100.00
41334;BME280;27078;46.428;6.256;2023-04-19T01:12:14;96652.00;;;9.25;100.00
41334;BME280;27078;46.428;6.256;2023-04-19T01:14:39;96660.28;;;9.20;100.00
41334;BME280;27078;46.428;6.256;2023-04-19T01:17:06;96661.16;;;8.98;100.00
41334;BME280;27078;46.428;6.256;2023-04-19T01:19:32;96654.69;;;8.80;100.00
41334;BME280;27078;46.428;6.256;2023-04-19T01:21:59;96654.97;;;8.76;100.00
41334;BME280;27078;46.428;6.256;2023-04-19T01:24:27;96656.38;;;8.69;100.00
41334;BME280;27078;46.428;6.256;2023-04-19T01:26:52;96650.75;;;8.63;100.00
41334;BME280;27078;46.428;6.256;2023-04-19T01:29:17;96653.75;;;8.58;100.00
41334;BME280;27078;46.428;6.256;2023-04-19T01:31:44;96644.66;;;8.73;100.00
41334;BME280;27078;46.428;6.256;2023-04-19T01:34:15;96654.69;;;8.80;100.00
41334;BME280;27078;46.428;6.256;2023-04-19T01:36:40;96644.41;;;8.65;100.00
41334;BME280;27078;46.428;6.256;2023-04-19T01:39:05;96645.59;;;8.50;100.00
41334;BME280;27078;46.428;6.256;2023-04-19T01:41:31;96650.69;;;8.40;100.00
41334;BME280;27078;46.428;6.256;2023-04-19T01:43:56;96649.41;;;8.57;100.00
41334;BME280;27078;46.428;6.256;2023-04-19T01:46:22;96647.66;;;8.69;100.00
41334;BME280;27078;46.428;6.256;2023-04-19T01:48:47;96653.28;;;8.64;100.00
41334;BME280;27078;46.428;6.256;2023-04-19T01:51:12;96647.88;;;8.43;100.00
41334;BME280;27078;46.428;6.256;2023-04-19T01:53:38;96650.69;;;8.40;100.00
41334;BME280;27078;46.428;6.256;2023-04-19T01:56:03;96649.13;;;8.38;100.00
41334;BME280;27078;46.428;6.256;2023-04-19T01:58:29;96639.44;;;8.27;100.00
41334;BME280;27078;46.428;6.256;2023-04-19T02:00:54;96643.84;;;8.15;100.00
41334;BME280;27078;46.428;6.256;2023-04-19T02:03:19;96646.75;;;8.34;100.00
41334;BME280;27078;46.428;6.256;2023-04-19T02:05:45;96644.94;;;8.24;100.00
41334;BME280;27078;46.428;6.256;2023-04-19T02:08:10;96642.25;;;8.48;100.00
41334;BME280;27078;46.428;6.256;2023-04-19T02:10:35;96639.16;;;8.54;100.00
41334;BME280;27078;46.428;6.256;2023-04-19T02:13:01;96636.16;;;8.47;100.00
41334;BME280;27078;46.428;6.256;2023-04-19T02:15:26;96641.97;;;8.40;100.00
41334;BME280;27078;46.428;6.256;2023-04-19T02:17:51;96649.84;;;8.40;100.00
41334;BME280;27078;46.428;6.256;2023-04-19T02:20:17;96642.59;;;8.43;100.00
41334;BME280;27078;46.428;6.256;2023-04-19T02:22:42;96637.63;;;8.27;100.00
41334;BME280;27078;46.428;6.256;2023-04-19T02:25:08;96647.94;;;8.19;100.00
41334;BME280;27078;46.428;6.256;2023-04-19T02:27:33;96645.16;;;8.21;100.00
41334;BME280;27078;46.428;6.256;2023-04-19T02:29:59;96647.53;;;8.12;100.00
41334;BME280;27078;46.428;6.256;2023-04-19T02:32:24;96648.56;;;7.87;100.00
41334;BME280;27078;46.428;6.256;2023-04-19T02:34:49;96644.69;;;7.80;100.00
41334;BME280;27078;46.428;6.256;2023-04-19T02:37:15;96644.88;;;7.66;100.00
41334;BME280;27078;46.428;6.256;2023-04-19T02:39:41;96653.56;;;7.55;100.00
41334;BME280;27078;46.428;6.256;2023-04-19T02:42:06;96651.50;;;7.47;100.00
41334;BME280;27078;46.428;6.256;2023-04-19T02:44:32;96649.44;;;7.40;100.00
41334;BME280;27078;46.428;6.256;2023-04-19T02:46:57;96655.38;;;7.30;100.00
41334;BME280;27078;46.428;6.256;2023-04-19T02:49:22;96652.84;;;7.29;100.00
41334;BME280;27078;46.428;6.256;2023-04-19T02:51:49;96652.53;;;7.21;100.00
41334;BME280;27078;46.428;6.256;2023-04-19T02:54:15;96658.97;;;7.17;100.00
41334;BME280;27078;46.428;6.256;2023-04-19T02:56:40;96659.63;;;7.07;100.00
41334;BME280;27078;46.428;6.256;2023-04-19T02:59:05;96651.91;;;7.17;100.00
41334;BME280;27078;46.428;6.256;2023-04-19T03:01:31;96658.72;;;7.32;100.00
41334;BME280;27078;46.428;6.256;2023-04-19T03:03:56;96657.69;;;7.46;100.00
41334;BME280;27078;46.428;6.256;2023-04-19T03:06:22;96656.25;;;7.42;100.00
41334;BME280;27078;46.428;6.256;2023-04-19T03:08:47;96662.16;;;7.57;100.00
41334;BME280;27078;46.428;6.256;2023-04-19T03:11:14;96660.50;;;7.56;100.00
41334;BME280;27078;46.428;6.256;2023-04-19T03:13:40;96667.31;;;7.59;100.00
41334;BME280;27078;46.428;6.256;2023-04-19T03:16:06;96664.25;;;7.65;100.00
41334;BME280;27078;46.428;6.256;2023-04-19T03:18:31;96655.53;;;7.64;100.00
41334;BME280;27078;46.428;6.256;2023-04-19T03:20:57;96663.25;;;7.54;100.00
41334;BME280;27078;46.428;6.256;2023-04-19T03:23:22;96663.50;;;7.39;100.00
41334;BME280;27078;46.428;6.256;2023-04-19T03:25:48;96668.84;;;7.50;100.00
41334;BME280;27078;46.428;6.256;2023-04-19T03:28:13;96668.16;;;7.35;100.00
41334;BME280;27078;46.428;6.256;2023-04-19T03:30:39;96667.16;;;7.25;100.00
41334;BME280;27078;46.428;6.256;2023-04-19T03:33:04;96664.03;;;7.20;100.00
41334;BME280;27078;46.428;6.256;2023-04-19T03:35:29;96660.19;;;7.24;100.00
41334;BME280;27078;46.428;6.256;2023-04-19T03:37:56;96670.94;;;7.21;100.00
41334;BME280;27078;46.428;6.256;2023-04-19T03:40:22;96661.84;;;7.38;100.00
41334;BME280;27078;46.428;6.256;2023-04-19T03:42:47;96665.25;;;7.27;100.00
41334;BME280;27078;46.428;6.256;2023-04-19T03:45:12;96667.38;;;7.22;100.00
41334;BME280;27078;46.428;6.256;2023-04-19T03:47:38;96666.75;;;7.18;100.00
41334;BME280;27078;46.428;6.256;2023-04-19T03:50:03;96666.56;;;7.08;100.00
41334;BME280;27078;46.428;6.256;2023-04-19T03:52:29;96663.03;;;6.97;100.00
41334;BME280;27078;46.428;6.256;2023-04-19T03:54:55;96662.41;;;6.93;100.00
41334;BME280;27078;46.428;6.256;2023-04-19T03:57:20;96663.06;;;6.84;100.00
41334;BME280;27078;46.428;6.256;2023-04-19T03:59:46;96658.44;;;6.75;100.00
41334;BME280;27078;46.428;6.256;2023-04-19T04:02:11;96649.63;;;6.76;100.00
41334;BME280;27078;46.428;6.256;2023-04-19T04:04:37;96658.75;;;6.83;100.00
41334;BME280;27078;46.428;6.256;2023-04-19T04:07:02;96656.44;;;6.78;100.00
41334;BME280;27078;46.428;6.256;2023-04-19T04:09:28;96646.47;;;6.70;100.00
41334;BME280;27078;46.428;6.256;2023-04-19T04:11:53;96657.63;;;6.61;100.00
41334;BME280;27078;46.428;6.256;2023-04-19T04:14:18;96653.31;;;6.60;100.00
41334;BME280;27078;46.428;6.256;2023-04-19T04:16:43;96642.06;;;6.58;100.00
41334;BME280;27078;46.428;6.256;2023-04-19T04:19:09;96652.78;;;6.55;100.00
41334;BME280;27078;46.428;6.256;2023-04-19T04:21:35;96658.28;;;6.52;100.00
41334;BME280;27078;46.428;6.256;2023-04-19T04:24:00;96654.69;;;6.53;100.00
41334;BME280;27078;46.428;6.256;2023-04-19T04:26:29;96661.19;;;6.47;100.00
41334;BME280;27078;46.428;6.256;2023-04-19T04:28:59;96660.56;;;6.44;100.00
41334;BME280;27078;46.428;6.256;2023-04-19T04:31:26;96662.34;;;6.43;100.00
41334;BME280;27078;46.428;6.256;2023-04-19T04:33:51;96658.69;;;6.46;100.00
41334;BME280;27078;46.428;6.256;2023-04-19T04:36:19;96664.13;;;6.43;100.00
41334;BME280;27078;46.428;6.256;2023-04-19T04:38:44;96666.03;;;6.41;100.00
41334;BME280;27078;46.428;6.256;2023-04-19T04:41:10;96667.41;;;6.34;100.00
41334;BME280;27078;46.428;6.256;2023-04-19T04:43:36;96659.09;;;6.27;100.00
41334;BME280;27078;46.428;6.256;2023-04-19T04:46:02;96669.91;;;6.22;100.00
41334;BME280;27078;46.428;6.256;2023-04-19T04:48:28;96666.97;;;6.27;100.00
41334;BME280;27078;46.428;6.256;2023-04-19T04:50:55;96673.56;;;6.32;100.00
41334;BME280;27078;46.428;6.256;2023-04-19T04:53:20;96671.50;;;6.38;100.00
41334;BME280;27078;46.428;6.256;2023-04-19T04:55:46;96674.84;;;6.40;100.00
41334;BME280;27078;46.428;6.256;2023-04-19T04:58:11;96664.13;;;6.43;100.00
41334;BME280;27078;46.428;6.256;2023-04-19T05:00:36;96674.00;;;6.52;100.00
41334;BME280;27078;46.428;6.256;2023-04-19T05:03:02;96670.75;;;6.61;100.00
41334;BME280;27078;46.428;6.256;2023-04-19T05:05:27;96671.25;;;6.66;100.00
41334;BME280;27078;46.428;6.256;2023-04-19T05:07:52;96670.22;;;6.69;100.00
41334;BME280;27078;46.428;6.256;2023-04-19T05:10:18;96678.84;;;6.71;100.00
41334;BME280;27078;46.428;6.256;2023-04-19T05:12:43;96672.09;;;6.80;100.00
41334;BME280;27078;46.428;6.256;2023-04-19T05:15:08;96676.06;;;6.85;100.00
41334;BME280;27078;46.428;6.256;2023-04-19T05:17:35;96674.09;;;7.13;100.00
41334;BME280;27078;46.428;6.256;2023-04-19T05:20:01;96673.56;;;7.21;100.00
41334;BME280;27078;46.428;6.256;2023-04-19T05:22:26;96674.69;;;7.29;100.00
41334;BME280;27078;46.428;6.256;2023-04-19T05:24:51;96671.53;;;7.37;100.00
41334;BME280;27078;46.428;6.256;2023-04-19T05:27:17;96680.53;;;7.46;100.00
41334;BME280;27078;46.428;6.256;2023-04-19T05:29:42;96676.63;;;7.51;100.00
41334;BME280;27078;46.428;6.256;2023-04-19T05:32:07;96672.47;;;7.60;100.00
41334;BME280;27078;46.428;6.256;2023-04-19T05:34:34;96666.16;;;7.63;100.00
41334;BME280;27078;46.428;6.256;2023-04-19T05:37:01;96673.00;;;7.77;100.00
41334;BME280;27078;46.428;6.256;2023-04-19T05:39:26;96678.66;;;7.83;100.00
41334;BME280;27078;46.428;6.256;2023-04-19T05:41:52;96674.16;;;7.97;100.00
41334;BME280;27078;46.428;6.256;2023-04-19T05:44:17;96673.25;;;8.09;100.00
41334;BME280;27078;46.428;6.256;2023-04-19T05:46:42;96672.31;;;8.21;100.00
41334;BME280;27078;46.428;6.256;2023-04-19T05:49:08;96666.13;;;8.33;100.00
41334;BME280;27078;46.428;6.256;2023-04-19T05:51:33;96671.09;;;8.49;100.00
41334;BME280;27078;46.428;6.256;2023-04-19T05:53:59;96671.47;;;8.56;100.00
41334;BME280;27078;46.428;6.256;2023-04-19T05:56:25;96670.38;;;8.70;100.00
41334;BME280;27078;46.428;6.256;2023-04-19T05:58:50;96663.91;;;8.74;100.00
41334;BME280;27078;46.428;6.256;2023-04-19T06:01:15;96673.63;;;8.85;100.00
41334;BME280;27078;46.428;6.256;2023-04-19T06:03:41;96672.78;;;8.95;100.00
41334;BME280;27078;46.428;6.256;2023-04-19T06:06:06;96677.59;;;9.02;100.00
41334;BME280;27078;46.428;6.256;2023-04-19T06:08:31;96680.56;;;9.08;100.00
41334;BME280;27078;46.428;6.256;2023-04-19T06:10:58;96681.25;;;9.22;100.00
41334;BME280;27078;46.428;6.256;2023-04-19T06:13:23;96681.38;;;9.31;100.00
41334;BME280;27078;46.428;6.256;2023-04-19T06:15:49;96679.53;;;9.43;100.00
41334;BME280;27078;46.428;6.256;2023-04-19T06:18:14;96683.94;;;9.54;100.00
41334;BME280;27078;46.428;6.256;2023-04-19T06:20:40;96678.38;;;9.68;100.00
41334;BME280;27078;46.428;6.256;2023-04-19T06:23:05;96674.16;;;9.77;100.00
41334;BME280;27078;46.428;6.256;2023-04-19T06:25:31;96675.91;;;9.88;100.00
41334;BME280;27078;46.428;6.256;2023-04-19T06:27:57;96678.63;;;9.97;100.00
41334;BME280;27078;46.428;6.256;2023-04-19T06:30:22;96681.22;;;10.09;100.00
41334;BME280;27078;46.428;6.256;2023-04-19T06:32:48;96678.19;;;10.13;100.00
41334;BME280;27078;46.428;6.256;2023-04-19T06:35:13;96677.56;;;10.21;100.00
41334;BME280;27078;46.428;6.256;2023-04-19T06:37:39;96683.44;;;10.25;100.00
41334;BME280;27078;46.428;6.256;2023-04-19T06:40:05;96681.34;;;10.28;100.00
41334;BME280;27078;46.428;6.256;2023-04-19T06:42:35;96678.50;;;10.31;100.00
41334;BME280;27078;46.428;6.256;2023-04-19T06:45:00;96684.34;;;10.35;100.00
41334;BME280;27078;46.428;6.256;2023-04-19T06:47:26;96676.75;;;10.42;100.00
41334;BME280;27078;46.428;6.256;2023-04-19T06:49:51;96677.78;;;10.50;100.00
41334;BME280;27078;46.428;6.256;2023-04-19T06:52:17;96677.50;;;10.53;100.00
41334;BME280;27078;46.428;6.256;2023-04-19T06:54:47;96683.09;;;10.60;100.00
41334;BME280;27078;46.428;6.256;2023-04-19T06:57:13;96678.28;;;10.65;100.00
41334;BME280;27078;46.428;6.256;2023-04-19T06:59:38;96685.94;;;10.68;100.00
41334;BME280;27078;46.428;6.256;2023-04-19T07:02:04;96677.00;;;10.59;100.00
41334;BME280;27078;46.428;6.256;2023-04-19T07:04:29;96684.22;;;10.57;100.00
41334;BME280;27078;46.428;6.256;2023-04-19T07:06:55;96681.44;;;10.59;100.00
41334;BME280;27078;46.428;6.256;2023-04-19T07:09:20;96674.47;;;10.58;100.00
41334;BME280;27078;46.428;6.256;2023-04-19T07:11:46;96686.91;;;10.67;100.00
41334;BME280;27078;46.428;6.256;2023-04-19T07:14:12;96681.22;;;10.72;100.00
41334;BME280;27078;46.428;6.256;2023-04-19T07:16:37;96675.94;;;10.72;100.00
41334;BME280;27078;46.428;6.256;2023-04-19T07:19:03;96676.00;;;10.82;100.00
41334;BME280;27078;46.428;6.256;2023-04-19T07:21:28;96682.84;;;10.94;100.00
41334;BME280;27078;46.428;6.256;2023-04-19T07:23:57;96684.53;;;10.95;100.00
41334;BME280;27078;46.428;6.256;2023-04-19T07:26:23;96681.91;;;10.95;100.00
41334;BME280;27078;46.428;6.256;2023-04-19T07:28:48;96684.25;;;10.98;100.00
41334;BME280;27078;46.428;6.256;2023-04-19T07:31:15;96673.56;;;10.99;100.00
41334;BME280;27078;46.428;6.256;2023-04-19T07:33:41;96676.78;;;11.03;100.00
41334;BME280;27078;46.428;6.256;2023-04-19T07:36:07;96679.84;;;10.98;100.00
41334;BME280;27078;46.428;6.256;2023-04-19T07:38:32;96677.75;;;11.02;100.00
41334;BME280;27078;46.428;6.256;2023-04-19T07:40:58;96681.38;;;11.01;100.00
41334;BME280;27078;46.428;6.256;2023-04-19T07:43:23;96682.47;;;10.98;100.00
41334;BME280;27078;46.428;6.256;2023-04-19T07:45:48;96683.19;;;11.10;100.00
41334;BME280;27078;46.428;6.256;2023-04-19T07:48:14;96684.06;;;11.20;100.00
41334;BME280;27078;46.428;6.256;2023-04-19T07:50:39;96680.19;;;11.25;100.00
41334;BME280;27078;46.428;6.256;2023-04-19T07:53:04;96680.06;;;11.26;100.00
41334;BME280;27078;46.428;6.256;2023-04-19T07:55:30;96680.78;;;11.38;100.00
41334;BME280;27078;46.428;6.256;2023-04-19T07:57:55;96683.47;;;11.48;100.00
41334;BME280;27078;46.428;6.256;2023-04-19T08:00:20;96676.50;;;11.56;100.00
41334;BME280;27078;46.428;6.256;2023-04-19T08:02:47;96680.09;;;11.55;100.00
41334;BME280;27078;46.428;6.256;2023-04-19T08:05:14;96682.88;;;11.44;100.00
41334;BME280;27078;46.428;6.256;2023-04-19T08:07:43;96685.94;;;11.39;100.00
41334;BME280;27078;46.428;6.256;2023-04-19T08:10:09;96686.81;;;11.50;100.00
41334;BME280;27078;46.428;6.256;2023-04-19T08:12:35;96690.84;;;11.54;100.00
41334;BME280;27078;46.428;6.256;2023-04-19T08:15:01;96686.09;;;11.57;100.00
41334;BME280;27078;46.428;6.256;2023-04-19T08:17:27;96679.56;;;11.61;100.00
41334;BME280;27078;46.428;6.256;2023-04-19T08:19:52;96685.28;;;11.57;100.00
41334;BME280;27078;46.428;6.256;2023-04-19T08:22:19;96690.16;;;11.61;100.00
41334;BME280;27078;46.428;6.256;2023-04-19T08:24:45;96682.09;;;11.73;100.00
41334;BME280;27078;46.428;6.256;2023-04-19T08:27:10;96687.38;;;11.82;100.00
41334;BME280;27078;46.428;6.256;2023-04-19T08:29:36;96687.94;;;11.67;100.00
41334;BME280;27078;46.428;6.256;2023-04-19T08:32:04;96688.22;;;11.83;100.00
41334;BME280;27078;46.428;6.256;2023-04-19T08:34:29;96692.16;;;11.79;100.00
41334;BME280;27078;46.428;6.256;2023-04-19T08:36:55;96692.69;;;11.82;100.00
41334;BME280;27078;46.428;6.256;2023-04-19T08:39:21;96695.06;;;11.86;100.00
41334;BME280;27078;46.428;6.256;2023-04-19T08:41:47;96692.44;;;11.95;100.00
41334;BME280;27078;46.428;6.256;2023-04-19T08:44:13;96695.22;;;12.04;100.00
41334;BME280;27078;46.428;6.256;2023-04-19T08:46:40;96698.31;;;12.28;100.00
41334;BME280;27078;46.428;6.256;2023-04-19T08:49:07;96698.28;;;12.38;100.00
41334;BME280;27078;46.428;6.256;2023-04-19T08:51:33;96694.38;;;12.52;100.00
41334;BME280;27078;46.428;6.256;2023-04-19T08:54:00;96695.06;;;12.54;100.00
41334;BME280;27078;46.428;6.256;2023-04-19T08:56:29;96698.22;;;12.67;100.00
41334;BME280;27078;46.428;6.256;2023-04-19T08:58:55;96695.56;;;12.67;100.00
41334;BME280;27078;46.428;6.256;2023-04-19T09:01:20;96695.69;;;12.75;100.00
41334;BME280;27078;46.428;6.256;2023-04-19T09:03:45;96689.81;;;12.81;100.00
41334;BME280;27078;46.428;6.256;2023-04-19T09:06:11;96689.38;;;12.96;100.00
41334;BME280;27078;46.428;6.256;2023-04-19T09:08:37;96690.56;;;13.11;100.00
41334;BME280;27078;46.428;6.256;2023-04-19T09:11:03;96686.28;;;13.38;100.00
41334;BME280;27078;46.428;6.256;2023-04-19T09:13:29;96691.38;;;13.49;100.00
41334;BME280;27078;46.428;6.256;2023-04-19T09:15:54;96688.78;;;13.85;100.00
41334;BME280;27078;46.428;6.256;2023-04-19T09:18:26;96679.97;;;14.02;100.00
41334;BME280;27078;46.428;6.256;2023-04-19T09:20:52;96670.41;;;13.92;100.00
41334;BME280;27078;46.428;6.256;2023-04-19T09:23:22;96674.97;;;14.17;100.00
41334;BME280;27078;46.428;6.256;2023-04-19T09:28:20;96667.50;;;14.39;100.00
41334;BME280;27078;46.428;6.256;2023-04-19T09:30:46;96659.16;;;14.34;100.00
41334;BME280;27078;46.428;6.256;2023-04-19T09:33:11;96664.31;;;14.35;100.00
41334;BME280;27078;46.428;6.256;2023-04-19T09:35:45;96653.59;;;14.45;100.00
41334;BME280;27078;46.428;6.256;2023-04-19T09:38:12;96658.81;;;14.55;100.00
41334;BME280;27078;46.428;6.256;2023-04-19T09:40:39;96655.66;;;14.77;100.00
41334;BME280;27078;46.428;6.256;2023-04-19T09:43:04;96657.19;;;14.80;100.00
41334;BME280;27078;46.428;6.256;2023-04-19T09:45:43;96647.47;;;14.97;100.00
41334;BME280;27078;46.428;6.256;2023-04-19T09:48:09;96650.16;;;15.05;100.00
41334;BME280;27078;46.428;6.256;2023-04-19T09:50:36;96646.50;;;15.06;100.00
41334;BME280;27078;46.428;6.256;2023-04-19T09:53:15;96642.19;;;15.05;100.00
41334;BME280;27078;46.428;6.256;2023-04-19T09:55:41;96644.88;;;15.21;100.00
41334;BME280;27078;46.428;6.256;2023-04-19T09:58:07;96643.94;;;15.31;100.00
41334;BME280;27078;46.428;6.256;2023-04-19T10:00:32;96632.66;;;15.37;100.00
41334;BME280;27078;46.428;6.256;2023-04-19T10:02:59;96637.06;;;15.71;100.00
41334;BME280;27078;46.428;6.256;2023-04-19T10:05:25;96631.63;;;15.88;100.00
41334;BME280;27078;46.428;6.256;2023-04-19T10:07:51;96624.47;;;16.14;100.00
41334;BME280;27078;46.428;6.256;2023-04-19T10:10:17;96622.44;;;16.57;100.00
41334;BME280;27078;46.428;6.256;2023-04-19T10:12:47;96618.38;;;16.94;100.00
41334;BME280;27078;46.428;6.256;2023-04-19T10:15:13;96616.09;;;17.22;100.00
41334;BME280;27078;46.428;6.256;2023-04-19T10:17:39;96619.88;;;17.36;100.00
41334;BME280;27078;46.428;6.256;2023-04-19T10:20:09;96617.69;;;17.70;100.00
41334;BME280;27078;46.428;6.256;2023-04-19T10:22:37;96612.00;;;17.97;100.00
41334;BME280;27078;46.428;6.256;2023-04-19T10:25:14;96607.03;;;18.17;100.00
41334;BME280;27078;46.428;6.256;2023-04-19T10:27:42;96602.41;;;18.10;100.00
41334;BME280;27078;46.428;6.256;2023-04-19T10:30:22;96600.47;;;18.19;100.00
41334;BME280;27078;46.428;6.256;2023-04-19T10:32:53;96596.59;;;18.60;100.00
41334;BME280;27078;46.428;6.256;2023-04-19T10:35:25;96595.94;;;18.58;100.00
41334;BME280;27078;46.428;6.256;2023-04-19T10:38:14;96591.91;;;18.24;100.00
41334;BME280;27078;46.428;6.256;2023-04-19T10:43:22;96587.22;;;17.57;100.00
41334;BME280;27078;46.428;6.256;2023-04-19T10:45:48;96588.66;;;17.67;100.00
41334;BME280;27078;46.428;6.256;2023-04-19T10:51:01;96591.50;;;17.35;100.00
41334;BME280;27078;46.428;6.256;2023-04-19T10:53:49;96581.06;;;16.85;100.00
41334;BME280;27078;46.428;6.256;2023-04-19T11:04:12;96566.50;;;18.28;100.00
41334;BME280;27078;46.428;6.256;2023-04-19T11:06:56;96557.63;;;18.13;100.00
41334;BME280;27078;46.428;6.256;2023-04-19T11:09:30;96552.16;;;18.06;100.00
41334;BME280;27078;46.428;6.256;2023-04-19T11:12:02;96553.13;;;17.90;100.00
41334;BME280;27078;46.428;6.256;2023-04-19T11:14:30;96550.06;;;17.47;100.00
41334;BME280;27078;46.428;6.256;2023-04-19T11:16:56;96540.88;;;17.49;100.00
41334;BME280;27078;46.428;6.256;2023-04-19T11:19:22;96531.88;;;17.50;100.00
41334;BME280;27078;46.428;6.256;2023-04-19T11:21:48;96526.75;;;17.41;100.00
41334;BME280;27078;46.428;6.256;2023-04-19T11:24:14;96521.84;;;17.53;100.00
41334;BME280;27078;46.428;6.256;2023-04-19T11:26:46;96517.44;;;17.37;100.00
41334;BME280;27078;46.428;6.256;2023-04-19T11:29:14;96511.97;;;17.30;100.00
41334;BME280;27078;46.428;6.256;2023-04-19T11:31:43;96501.19;;;17.23;100.00
41334;BME280;27078;46.428;6.256;2023-04-19T11:34:08;96497.69;;;17.46;100.00
41334;BME280;27078;46.428;6.256;2023-04-19T11:36:33;96502.97;;;17.54;100.00
41334;BME280;27078;46.428;6.256;2023-04-19T11:39:03;96494.28;;;17.52;100.00
41334;BME280;27078;46.428;6.256;2023-04-19T11:41:29;96485.53;;;17.43;100.00
41334;BME280;27078;46.428;6.256;2023-04-19T11:43:54;96489.75;;;17.38;100.00
41334;BME280;27078;46.428;6.256;2023-04-19T11:46:20;96488.50;;;17.48;100.00
41334;BME280;27078;46.428;6.256;2023-04-19T11:48:52;96485.22;;;17.61;100.00
41334;BME280;27078;46.428;6.256;2023-04-19T11:51:19;96476.13;;;17.70;100.00
41334;BME280;27078;46.428;6.256;2023-04-19T11:53:44;96476.31;;;17.92;100.00
41334;BME280;27078;46.428;6.256;2023-04-19T11:56:10;96476.50;;;18.05;100.00
41334;BME280;27078;46.428;6.256;2023-04-19T11:58:44;96464.56;;;18.31;100.00
41334;BME280;27078;46.428;6.256;2023-04-19T12:01:17;96466.47;;;18.07;100.00
41334;BME280;27078;46.428;6.256;2023-04-19T12:03:51;96464.56;;;18.31;100.00
41334;BME280;27078;46.428;6.256;2023-04-19T12:06:27;96468.53;;;18.35;99.31
41334;BME280;27078;46.428;6.256;2023-04-19T12:08:54;96459.00;;;18.33;100.00
41334;BME280;27078;46.428;6.256;2023-04-19T12:11:25;96454.94;;;18.51;100.00
41334;BME280;27078;46.428;6.256;2023-04-19T12:14:10;96452.00;;;18.46;95.54
41334;BME280;27078;46.428;6.256;2023-04-19T12:16:36;96440.91;;;18.79;100.00
41334;BME280;27078;46.428;6.256;2023-04-19T12:19:12;96449.91;;;19.08;97.40
41334;BME280;27078;46.428;6.256;2023-04-19T12:21:38;96443.97;;;19.34;99.97
41334;BME280;27078;46.428;6.256;2023-04-19T12:24:04;96441.50;;;19.54;100.00
41334;BME280;27078;46.428;6.256;2023-04-19T12:26:29;96432.97;;;19.44;92.33
41334;BME280;27078;46.428;6.256;2023-04-19T12:28:56;96428.47;;;19.51;99.36
41334;BME280;27078;46.428;6.256;2023-04-19T12:31:22;96425.75;;;19.44;97.24
41334;BME280;27078;46.428;6.256;2023-04-19T12:33:48;96433.72;;;19.16;100.00
41334;BME280;27078;46.428;6.256;2023-04-19T12:36:13;96425.34;;;18.68;95.01
41334;BME280;27078;46.428;6.256;2023-04-19T12:38:39;96427.50;;;17.98;100.00
41334;BME280;27078;46.428;6.256;2023-04-19T12:41:04;96422.28;;;17.44;100.00
41334;BME280;27078;46.428;6.256;2023-04-19T12:43:31;96428.13;;;17.62;100.00
41334;BME280;27078;46.428;6.256;2023-04-19T12:45:57;96427.13;;;18.31;100.00
41334;BME280;27078;46.428;6.256;2023-04-19T12:48:23;96426.25;;;18.60;100.00
41334;BME280;27078;46.428;6.256;2023-04-19T12:50:48;96419.38;;;18.36;99.21
41334;BME280;27078;46.428;6.256;2023-04-19T12:53:14;96422.16;;;17.98;100.00
41334;BME280;27078;46.428;6.256;2023-04-19T12:55:39;96423.00;;;17.76;100.00
41334;BME280;27078;46.428;6.256;2023-04-19T12:58:04;96418.19;;;17.56;100.00
41334;BME280;27078;46.428;6.256;2023-04-19T13:00:30;96419.34;;;17.39;100.00
41334;BME280;27078;46.428;6.256;2023-04-19T13:02:55;96408.19;;;17.35;100.00
41334;BME280;27078;46.428;6.256;2023-04-19T13:05:20;96395.41;;;17.45;100.00
41334;BME280;27078;46.428;6.256;2023-04-19T13:07:46;96400.44;;;17.25;100.00